LEAS/OVD METAR and TAF weather

Enter ICAO airport designator
Station Type Date Time Source
LEAS METAR 2019/08/22 09:00 UTC NOAA

LEAS 220900Z 13008KT 070V170 9999 SCT018 22/17 Q1023 NOSIG


Station Type Date Time Source
LEAS Decoded METAR 2019/08/22 09:00 UTC NOAA

Station name not available
Aug 22, 2019 - 05:00 AM EDT / 2019.08.22 0900 UTC
Wind: from the SE (130 degrees) at 9 MPH (8 KT) (direction variable):0
Visibility: greater than 7 mile(s):0
Sky conditions: partly cloudy
Temperature: 71 F (22 C)
Dew Point: 62 F (17 C)
Relative Humidity: 73%
Pressure (altimeter): 30.21 in. Hg (1023 hPa)
ob: LEAS 220900Z 13008KT 070V170 9999 SCT018 22/17 Q1023 NOSIG
cycle: 9

Station Type Date Time Source
LEAS TAF 2019/08/22 09:30 UTC NOAA

TAF LEAS 220800Z 2209/2309 08009KT CAVOK TX25/2214Z TN15/2305Z
TEMPO 2212/2218 07015G25KT

Example: see airport list